Skip to Main Content
SEARCH:
Location Air RH Dwp Precip Type Wind Speed Wind Gust Direction Pavement Temperature Date/Time
Hatem Bridge US 40 E/B 58 50 39 None Calm Calm N 54 - 54 2/19/2017 8:30:00 PM
I-270 at I-370 57 56 41 None Calm Calm NW 57 - 59 2/19/2017 8:30:00 PM
I-270 at MD-109 55 63 42 None 8 mph 12 mph W 57 - 57 2/19/2017 8:30:00 PM
I-495 at American Legion Bridge 58 53 42 None 6 mph 16 mph W 58 - 62 2/19/2017 8:30:00 PM
I-68 at MD-219 43 95 42 None 10 mph 20 mph W 46 - 47 2/19/2017 8:30:00 PM
I-68 at Savage Mt 45 93 43 None 4 mph 10 mph W 44 - 45 2/19/2017 8:30:00 PM
I-68 at Sideling Hill 50 81 44 None Calm Calm NW 52 - 52 2/19/2017 8:30:00 PM
I-68 at WV Line 46 83 41 None 7 mph 19 mph W 47 - 48 2/19/2017 8:30:00 PM
I-695 at I-83 58 50 40 None Calm 8 mph NW 58 - 61 2/19/2017 8:30:00 PM
I-70 at Fred-Wash Co. 52 68 42 None 5 mph 14 mph NW 54 - 54 2/19/2017 8:30:00 PM
I-70 at I-695 58 53 41 None 4 mph 9 mph W 57 - 64 2/19/2017 8:30:00 PM
I-70 at I-81 56 61 43 None 5 mph 9 mph W 57 - 57 2/19/2017 8:30:00 PM
I-70 at MD-27 53 62 40 None Calm Calm NW 56 - 58 2/19/2017 8:30:00 PM
I-70 at MD-32 54 60 41 None Calm 7 mph W 55 - 60 2/19/2017 8:30:00 PM
I-83 at MD-137 57 51 40 None Calm 5 mph SW 58 - 58 2/19/2017 8:30:00 PM
I-895 at I-95 - - - No Data Available - - No Data Available -
I-95 at I-695 NE 60 49 41 None Calm 9 mph W 58 - 61 2/19/2017 8:30:00 PM
I-95 at Patuxent River 58 52 41 None Calm 4 mph N 61 - 63 2/19/2017 8:30:00 PM
I-95 at Tydings Bridge 57 52 40 None Calm 6 mph SW 57 - 61 2/19/2017 8:30:00 PM
I-95/495 at I-295 62 45 41 None 4 mph 8 mph W 61 - 62 2/19/2017 8:30:00 PM
I-97 at MD-100 59 51 41 None 7 mph 14 mph W 58 - 61 2/19/2017 8:30:00 PM
I-97 at MD-32 58 52 41 None 8 mph 11 mph N 59 - 61 2/19/2017 8:30:00 PM
MD 20 at MD 21 59 51 41 None 5 mph 9 mph W 57 - 57 2/19/2017 8:30:00 PM
MD 231 at Patuxent River 60 45 39 None 9 mph 15 mph NW 59 - 63 2/19/2017 8:30:00 PM
MD 260 at Cox Rd 59 49 41 None Calm 10 mph N 59 - 59 2/19/2017 8:30:00 PM
MD-135 at Salt Dome 41 100 41 None 5 mph 15 mph NW 41 - 41 2/19/2017 8:30:00 PM
MD-140 at MD-97 56 54 40 None 5 mph 10 mph W 58 - 58 2/19/2017 8:30:00 PM
MD-200 EB at Bonifant Rd 56 58 41 None Calm 4 mph S 50 - 55 2/19/2017 8:34:00 PM
MD-200 WB at Muncaster Mill Rd 55 56 40 None Calm Calm W 52 - 58 2/19/2017 8:34:00 PM
MD-213 at Sassafras River 52 68 42 None Calm Calm SW 51 - 51 2/19/2017 8:30:00 PM
MD-24 at Rock St Park 45 79 39 None Calm Calm N 46 - 46 2/19/2017 8:30:00 PM
MD-30 at PA Line 56 52 39 None 6 mph 11 mph W 54 - 54 2/19/2017 8:30:00 PM
MD-301 at MD-305 56 56 41 None 6 mph 7 mph W 55 - 55 2/19/2017 8:30:00 PM
MD-33 at Knapps Narrows Drawbridge 51 70 41 None 13 mph 19 mph NW 55 - 55 2/19/2017 8:30:00 PM
MD-344 at MD-224 59 47 39 None Calm 6 mph NW 53 - 53 2/19/2017 8:30:00 PM
MD-4 at Patuxent River 53 66 43 None - - No Data Available 57 - 61 2/19/2017 8:30:00 PM
MD-404 at Choptank River 55 56 40 None Calm 6 mph NW 57 - 58 2/19/2017 8:30:00 PM
MD-43 at MD-150 60 51 42 None Calm 5 mph W 58 - 61 2/19/2017 8:30:00 PM
MD-51 at Oldtown Salt Dome 48 76 41 None Calm Calm NE 53 - 53 2/19/2017 8:30:00 PM
MD-64 at MD-418 52 63 40 None 5 mph 7 mph SW 51 - 54 2/19/2017 8:30:00 PM
US-1 at Baltimore / Harford Co. Line 45 77 38 None Calm Calm NW 51 - 51 2/19/2017 8:30:00 PM
US-1 at Conowingo Dam 59 49 40 None Calm 8 mph NW 57 - 57 2/19/2017 8:30:00 PM
US-13 at US-113 51 78 44 None Calm Calm N 54 - 55 2/19/2017 8:30:00 PM
US-13 at US-50 - - - No Data Available - - No Data Available -
US-15 at MD-140 55 54 39 None Calm Calm N 58 - 61 2/19/2017 8:30:00 PM
US-301 at MD-5 57 51 40 None Calm 9 mph W 58 - 62 2/19/2017 8:30:00 PM
US-301 at Potomac 56 61 43 None 7 mph 11 mph N 58 - 59 2/19/2017 8:30:00 PM
US-301 on HWN Bridge 64 37 37 None 21 mph 23 mph NW 58 - 58 2/19/2017 8:30:00 PM
US-340 at MD-180 57 56 42 None 17 mph 26 mph NW 57 - 59 2/19/2017 8:30:00 PM
US-50 at Choptank 58 58 44 None 7 mph 12 mph NW 54 - 55 2/19/2017 8:30:00 PM
US-50 at I-95 60 49 42 None 6 mph 13 mph NW 59 - 64 2/19/2017 8:30:00 PM
US-50 at MD-2 60 50 42 None Calm 7 mph SW 59 - 62 2/19/2017 8:30:00 PM
US-50 at MD-331 58 57 43 None 5 mph 9 mph NW 56 - 56 2/19/2017 8:30:00 PM
US-50 at OC Drawbridge 58 61 45 None 5 mph 9 mph W 56 - 56 2/19/2017 8:30:00 PM
US-50 at Table Rock Rd 41 100 41 None 5 mph 14 mph NW 44 - 44 2/19/2017 8:30:00 PM
US-50 Kent Narrow Bridge 60 53 43 None 7 mph 10 mph SW 60 - 61 2/19/2017 8:30:00 PM
WPL Pier 31 61 45 40 None 15 mph 13 mph NW 56 - 56 2/19/2017 8:34:00 PM
Location Air RH Dwp Precip Type Wind Speed Wind Gust Direction Pavement Temperature Date/Time